Aérodrome :
LOGIN :

S'inscrire | Disclaimer

   EN    FR    IT 

 










Légende :    VFR   VFR Marginal   IFR   IFR Intensif   IFR Très Intensif
Visi : 
Plafond : 
>= 8 km
>= 3000ft
5 à 8 km
1000 à 3000 ft
1500m à 5 km
500 à 1000 ft
800 à 1500m
200 à 500 ft
< 800m
< 200 ft
Symboles :   Orages  Brouillard  Fortes neiges  Fortes précipitations  Vent > 20 kt
SIGMETs :   Divers  Orages  Givrage  Turbulence  Onde Orograph.  Cendres Volcan.






- Altitude de l'aérodrome : 202 ft
- Code IATA : LGW


EGKK - London Gatwick

DERNIER METAR :
  • 192250Z 22009KT 9999 BKN010 09/07 Q1015

METARs EXPIRÉS :
  • 192220Z 22012KT 9999 BKN013 09/07 Q1015
  • 192150Z 23012KT 9999 BKN015 09/07 Q1015
  • 192120Z 22012KT 9999 BKN015 09/07 Q1016
  • 192050Z 22010KT 9999 BKN014 BKN018 09/07 Q1016
  • 192020Z 23013KT 9999 BKN011 09/08 Q1016 REDZ

TAF AMD TAF EGKK
Valide du 19 à 20h jusqu'au 21 à 00h UTC


192006Z 1920/2024 21012KT 9999 BKN018
TEMPO 1920/2008 22015G25KT
PROB30
TEMPO 1920/2011 6000 RADZ BKN012
BECMG 2008/2011 21018G28KT
TEMPO 2011/2015 6000 RA BKN012
PROB40
TEMPO 2012/2014 24022G35KT 3000 +RA BKN008
BECMG 2013/2015 29012KT
PROB30
TEMPO 2015/2018 30015G25KT 7000 SHRA
BECMG 2018/2021 CAVOK



MET'MAP, la Météo Aéronautique d'un coup d'oeil ! - Copyright ORBIFLY Décembre 2007 - Disclaimer

ORBIFLY MET'MAP TEAM :

Programmation & Développement : Alexandra Zaïnal
Sur une idée originale de : Baudouin d'Aumeries
Assistance à la programmation : Marc-Olivier Méhu
Soutien technique & logistique : Manuel Goepfert

Contact : metmap@orbifly.com




SOURCES & CREDITS :

   NOAA